LFGI weather

Public forecast

Using degrees Celsius for public forecast. Weather courtesy of forecast.io.

Closest aviation weather report (METAR) to Dijon Darois Airfield

Closest report is Dijon-Bourgogne Airport, 9.1 nm (16.9 km) SE. Retrieved 2020/08/14 07:30 UTC (23 minutes ago):

LFSD 140730Z AUTO VRB02KT 9999 OVC047/// ///TCU 21/20 Q1017

Closest aviation forecast (TAF) to Dijon Darois Airfield

Forecast is more than 12 hours old.

Closest forecast is Dijon-Bourgogne Airport, 9.1 nm (16.9 km) SE. Retrieved 2015/06/01 00:11 UTC (5 years ago):

TAF LFSD 010600Z 0100/0124 CNL